createdAt,value
2022-10-17T00:00:08.785Z,9.27
2022-10-17T00:02:35.073Z,4.05
2022-10-17T00:05:01.447Z,4.50
2022-10-17T00:07:27.976Z,4.22
2022-10-17T00:09:54.509Z,8.48
2022-10-17T00:12:20.860Z,4.07
2022-10-17T00:14:47.221Z,5.85
2022-10-17T00:17:15.106Z,4.15
2022-10-17T00:19:42.370Z,6.22
2022-10-17T00:22:08.760Z,3.50
2022-10-17T00:24:35.090Z,5.18
2022-10-17T00:27:01.524Z,6.55
2022-10-17T00:29:27.835Z,4.90
2022-10-17T00:31:56.252Z,3.15
2022-10-17T00:34:23.480Z,3.25
2022-10-17T00:36:49.820Z,4.03
2022-10-17T00:39:16.209Z,5.40
2022-10-17T00:41:42.797Z,6.60
2022-10-17T00:44:31.027Z,5.70
2022-10-17T00:47:04.574Z,4.38
2022-10-17T00:49:33.150Z,5.32
2022-10-17T00:52:04.688Z,5.10
2022-10-17T00:54:33.866Z,3.55
2022-10-17T00:57:01.153Z,5.13
2022-10-17T00:59:29.762Z,3.35
2022-10-17T01:02:13.730Z,3.53
2022-10-17T01:04:43.077Z,3.22
2022-10-17T01:07:10.025Z,4.55
2022-10-17T01:09:37.280Z,8.88
2022-10-17T01:12:26.794Z,4.70
2022-10-17T01:15:18.183Z,5.20
2022-10-17T01:18:14.594Z,5.43
2022-10-17T01:20:53.221Z,5.00
2022-10-17T01:23:22.647Z,3.97
2022-10-17T01:26:19.545Z,4.32
2022-10-17T01:29:01.240Z,6.93
2022-10-17T01:31:47.609Z,6.53
2022-10-17T01:34:27.177Z,3.72
2022-10-17T01:36:56.250Z,7.00
2022-10-17T01:39:38.508Z,4.82
2022-10-17T01:42:18.088Z,3.03
2022-10-17T01:45:23.092Z,4.07
2022-10-17T01:47:52.479Z,3.20
2022-10-17T01:50:24.787Z,3.80
2022-10-17T01:52:56.933Z,7.10
2022-10-17T01:55:31.713Z,5.15
2022-10-17T01:58:04.064Z,4.07
2022-10-17T02:00:32.348Z,6.38
2022-10-17T02:03:02.453Z,3.90
2022-10-17T02:05:35.500Z,3.60
2022-10-17T02:08:01.908Z,4.95
2022-10-17T02:10:52.872Z,4.53
2022-10-17T02:13:28.879Z,7.28
2022-10-17T02:16:04.326Z,8.02
2022-10-17T02:18:52.647Z,8.15
2022-10-17T02:21:27.296Z,5.28
2022-10-17T02:24:33.076Z,4.35
2022-10-17T02:27:09.619Z,3.65
2022-10-17T02:29:50.190Z,4.20
2022-10-17T02:32:24.639Z,4.95
2022-10-17T02:34:55.301Z,4.22
2022-10-17T02:37:26.628Z,4.75
2022-10-17T02:39:56.885Z,6.55
2022-10-17T02:42:26.324Z,4.53
2022-10-17T02:44:54.923Z,4.40
2022-10-17T02:47:32.063Z,9.18
2022-10-17T02:49:58.554Z,6.93
2022-10-17T02:52:47.877Z,4.90
2022-10-17T02:55:24.461Z,7.47
2022-10-17T02:57:54.475Z,10.30
2022-10-17T03:00:24.979Z,4.90
2022-10-17T03:02:53.547Z,5.57
2022-10-17T03:05:25.868Z,6.57
2022-10-17T03:07:52.931Z,5.18
2022-10-17T03:10:20.218Z,6.60
2022-10-17T03:12:46.589Z,6.32
2022-10-17T03:15:13.597Z,5.75
2022-10-17T03:17:39.981Z,5.72
2022-10-17T03:20:07.210Z,6.25
2022-10-17T03:22:33.845Z,5.15
2022-10-17T03:25:00.216Z,6.07
2022-10-17T03:27:26.793Z,5.68
2022-10-17T03:29:53.266Z,6.78
2022-10-17T03:32:19.643Z,5.60
2022-10-17T03:34:46.048Z,12.20
2022-10-17T03:37:12.422Z,7.63
2022-10-17T03:39:38.805Z,5.22
2022-10-17T03:42:05.169Z,7.53
2022-10-17T03:44:31.496Z,7.55
2022-10-17T03:46:57.956Z,11.18
2022-10-17T03:49:24.419Z,8.75
2022-10-17T03:51:50.770Z,7.70
2022-10-17T03:54:17.096Z,11.30
2022-10-17T03:56:43.933Z,9.32
2022-10-17T03:59:14.910Z,8.35
2022-10-17T04:01:41.929Z,6.95
2022-10-17T04:04:08.648Z,9.70
2022-10-17T04:06:36.072Z,11.35
2022-10-17T04:09:04.015Z,9.38
2022-10-17T04:11:30.406Z,8.02
2022-10-17T04:13:59.205Z,8.75
2022-10-17T04:16:25.651Z,7.45
2022-10-17T04:18:56.840Z,8.25
2022-10-17T04:21:24.936Z,14.07
2022-10-17T04:23:55.502Z,8.55
2022-10-17T04:26:22.128Z,7.90
2022-10-17T04:28:48.823Z,9.13
2022-10-17T04:31:15.307Z,6.82
2022-10-17T04:33:42.314Z,10.45
2022-10-17T04:36:12.857Z,7.30
2022-10-17T04:38:39.658Z,7.32
2022-10-17T04:41:11.039Z,8.18
2022-10-17T04:43:38.830Z,11.20
2022-10-17T04:46:11.389Z,6.88
2022-10-17T04:48:38.678Z,7.53
2022-10-17T04:51:08.213Z,7.13
2022-10-17T04:53:36.450Z,10.45
2022-10-17T04:56:12.874Z,7.70
2022-10-17T04:58:40.351Z,9.13
2022-10-17T05:01:09.141Z,13.90
2022-10-17T05:03:36.365Z,10.02
2022-10-17T05:06:16.154Z,9.52
2022-10-17T05:08:43.221Z,8.40
2022-10-17T05:11:24.534Z,6.30
2022-10-17T05:13:55.553Z,11.02
2022-10-17T05:16:22.681Z,6.57
2022-10-17T05:18:52.966Z,9.45
2022-10-17T05:21:20.573Z,8.60
2022-10-17T05:23:46.963Z,9.82
2022-10-17T05:26:14.021Z,11.35
2022-10-17T05:28:41.189Z,11.75
2022-10-17T05:31:09.647Z,11.07
2022-10-17T05:33:37.029Z,8.48
2022-10-17T05:36:04.028Z,11.25
2022-10-17T05:38:30.456Z,5.80
2022-10-17T05:40:58.524Z,9.82
2022-10-17T05:43:25.331Z,10.35
2022-10-17T05:45:51.793Z,7.72
2022-10-17T05:48:18.205Z,9.40
2022-10-17T05:50:44.569Z,6.78
2022-10-17T05:53:10.929Z,9.13
2022-10-17T05:55:37.283Z,14.35
2022-10-17T05:58:03.798Z,8.30
2022-10-17T06:00:30.323Z,15.30
2022-10-17T06:02:57.233Z,6.57
2022-10-17T06:05:24.051Z,6.25
2022-10-17T06:07:52.651Z,8.20
2022-10-17T06:10:19.623Z,9.80
2022-10-17T06:12:46.151Z,8.15
2022-10-17T06:15:12.804Z,9.48
2022-10-17T06:17:39.215Z,11.02
2022-10-17T06:20:06.197Z,10.23
2022-10-17T06:22:32.603Z,11.70
2022-10-17T06:24:59.061Z,6.05
2022-10-17T06:27:25.499Z,11.73
2022-10-17T06:29:51.910Z,10.27
2022-10-17T06:32:18.328Z,8.50
2022-10-17T06:34:44.671Z,8.07
2022-10-17T06:37:11.001Z,6.45
2022-10-17T06:39:37.858Z,13.77
2022-10-17T06:42:04.388Z,9.48
2022-10-17T06:44:31.858Z,11.25
2022-10-17T06:46:59.629Z,4.63
2022-10-17T06:49:26.905Z,9.60
2022-10-17T06:51:53.803Z,6.13
2022-10-17T06:54:20.430Z,6.60
2022-10-17T06:56:46.962Z,7.68
2022-10-17T06:59:13.335Z,6.28
2022-10-17T07:01:41.830Z,5.75
2022-10-17T07:04:10.968Z,5.95
2022-10-17T07:06:38.158Z,9.48
2022-10-17T07:09:06.806Z,5.68
2022-10-17T07:11:35.164Z,4.93
2022-10-17T07:14:02.491Z,5.30
2022-10-17T07:16:29.709Z,4.63
2022-10-17T07:18:56.705Z,4.40
2022-10-17T07:21:23.049Z,6.03
2022-10-17T07:23:49.683Z,8.30
2022-10-17T07:26:17.550Z,6.22
2022-10-17T07:28:45.891Z,5.45
2022-10-17T07:31:15.281Z,4.13
2022-10-17T07:33:42.821Z,4.25
2022-10-17T07:36:09.889Z,6.35
2022-10-17T07:38:36.596Z,3.75
2022-10-17T07:41:05.520Z,7.13
2022-10-17T07:43:32.442Z,4.70
2022-10-17T07:46:00.434Z,5.45
2022-10-17T07:48:26.965Z,4.28
2022-10-17T07:50:53.340Z,4.93
2022-10-17T07:53:19.874Z,9.68
2022-10-17T07:55:47.810Z,4.65
2022-10-17T07:58:14.727Z,7.05
2022-10-17T08:00:41.667Z,3.22
2022-10-17T08:03:08.478Z,4.53
2022-10-17T08:05:34.824Z,6.10
2022-10-17T08:08:01.236Z,6.05
2022-10-17T08:10:29.281Z,5.40
2022-10-17T08:12:57.733Z,2.47
2022-10-17T08:15:29.352Z,6.25
2022-10-17T08:17:58.718Z,5.20
2022-10-17T08:20:25.099Z,3.13
2022-10-17T08:22:53.128Z,9.18
2022-10-17T08:25:19.561Z,4.40
2022-10-17T08:27:46.115Z,9.30
2022-10-17T08:30:12.594Z,7.00
2022-10-17T08:32:39.011Z,8.75
2022-10-17T08:35:05.714Z,6.45
2022-10-17T08:37:32.752Z,12.52
2022-10-17T08:39:59.413Z,7.53
2022-10-17T08:43:03.535Z,11.15
2022-10-17T08:45:29.901Z,7.40
2022-10-17T08:48:02.095Z,11.07
2022-10-17T08:50:40.344Z,11.35
2022-10-17T08:53:35.540Z,8.05
2022-10-17T08:56:19.903Z,4.90
2022-10-17T08:58:51.464Z,12.35
2022-10-17T09:01:36.405Z,4.60
2022-10-17T09:04:27.353Z,6.20
2022-10-17T09:07:10.953Z,8.85
2022-10-17T09:09:53.471Z,6.07
2022-10-17T09:12:35.148Z,9.13
2022-10-17T09:15:22.875Z,6.93
2022-10-17T09:18:00.928Z,2.42
2022-10-17T09:20:32.112Z,8.85
2022-10-17T09:23:09.011Z,4.18
2022-10-17T09:25:43.786Z,9.77
2022-10-17T09:28:10.319Z,11.02
2022-10-17T09:30:59.461Z,2.88
2022-10-17T09:33:42.270Z,3.83
2022-10-17T09:36:27.266Z,5.78
2022-10-17T09:38:56.977Z,3.22
2022-10-17T09:41:44.755Z,6.10
2022-10-17T09:44:16.364Z,10.65
2022-10-17T09:46:52.488Z,10.50
2022-10-17T09:49:26.873Z,2.03
2022-10-17T09:51:53.534Z,3.42
2022-10-17T09:54:24.165Z,9.40
2022-10-17T09:57:02.956Z,6.15
2022-10-17T09:59:45.088Z,2.50
2022-10-17T10:02:22.054Z,3.00
2022-10-17T10:05:10.301Z,3.60
2022-10-17T10:07:38.811Z,3.40
2022-10-17T10:10:26.240Z,4.97
2022-10-17T10:13:12.729Z,3.85
2022-10-17T10:15:44.618Z,4.82
2022-10-17T10:18:26.450Z,8.02
2022-10-17T10:21:07.329Z,4.63
2022-10-17T10:23:34.045Z,2.78
2022-10-17T10:26:05.667Z,2.15
2022-10-17T10:28:35.250Z,3.67
2022-10-17T10:31:09.685Z,5.32
2022-10-17T10:33:41.744Z,6.60
2022-10-17T10:36:09.093Z,3.92
2022-10-17T10:38:40.081Z,7.07
2022-10-17T10:41:09.168Z,4.38
2022-10-17T10:43:41.258Z,5.32
2022-10-17T10:46:21.051Z,9.52
2022-10-17T10:48:55.570Z,9.60
2022-10-17T10:51:32.036Z,3.38
2022-10-17T10:54:16.137Z,6.13
2022-10-17T10:56:48.783Z,3.45
2022-10-17T10:59:25.970Z,8.13
2022-10-17T11:01:55.623Z,2.88
2022-10-17T11:04:40.813Z,2.25
2022-10-17T11:07:17.690Z,5.00
2022-10-17T11:10:05.995Z,3.25
2022-10-17T11:12:35.350Z,4.13
2022-10-17T11:15:07.895Z,8.77
2022-10-17T11:17:56.844Z,5.50
2022-10-17T11:20:32.861Z,6.65
2022-10-17T11:23:14.344Z,6.45
2022-10-17T11:25:41.880Z,7.40
2022-10-17T11:28:17.463Z,9.75
2022-10-17T11:31:07.975Z,7.55
2022-10-17T11:33:56.004Z,6.50
2022-10-17T11:36:28.137Z,6.38
2022-10-17T11:39:14.544Z,6.82
2022-10-17T11:42:09.309Z,7.82
2022-10-17T11:44:42.668Z,7.82
2022-10-17T11:47:30.119Z,8.07
2022-10-17T11:53:10.408Z,9.65
2022-10-17T11:55:38.418Z,5.55
2022-10-17T11:58:26.845Z,7.13
2022-10-17T12:01:08.252Z,4.63
2022-10-17T12:03:59.613Z,3.97
2022-10-17T12:06:35.028Z,3.53
2022-10-17T12:09:21.945Z,2.85
2022-10-17T12:11:54.213Z,5.90
2022-10-17T12:14:42.345Z,9.98
2022-10-17T12:17:34.819Z,7.28
2022-10-17T12:20:27.252Z,5.68
2022-10-17T12:23:17.918Z,7.28
2022-10-17T12:26:05.662Z,2.75
2022-10-17T12:28:38.188Z,6.25
2022-10-17T12:31:23.226Z,14.13
2022-10-17T12:33:52.605Z,5.07
2022-10-17T12:36:18.982Z,4.97
2022-10-17T12:38:50.170Z,3.20
2022-10-17T12:41:37.296Z,7.75
2022-10-17T12:44:12.790Z,5.68
2022-10-17T12:46:52.471Z,5.93
2022-10-17T12:49:36.525Z,5.35
2022-10-17T12:52:22.060Z,2.70
2022-10-17T12:55:00.535Z,7.93
2022-10-17T12:58:08.120Z,2.65
2022-10-17T13:03:46.985Z,5.43
2022-10-17T13:06:22.008Z,5.50
2022-10-17T13:08:59.790Z,5.13
2022-10-17T13:11:33.002Z,7.82
2022-10-17T13:14:03.479Z,9.07
2022-10-17T13:16:33.964Z,6.03
2022-10-17T13:19:02.523Z,4.75
2022-10-17T13:21:30.003Z,10.27
2022-10-17T13:23:56.341Z,13.25
2022-10-17T13:26:25.901Z,8.52
2022-10-17T13:29:02.768Z,8.20
2022-10-17T13:31:32.697Z,5.20
2022-10-17T13:34:02.198Z,17.05
2022-10-17T13:36:30.348Z,4.63
2022-10-17T13:38:59.851Z,10.88
2022-10-17T13:41:36.884Z,6.25
2022-10-17T13:44:11.922Z,7.82
2022-10-17T13:46:39.930Z,9.05
2022-10-17T13:49:42.905Z,6.80
2022-10-17T13:52:19.533Z,5.82
2022-10-17T13:54:48.548Z,8.52
2022-10-17T13:57:17.626Z,7.32
2022-10-17T13:59:47.754Z,2.40
2022-10-17T14:02:17.304Z,4.90
2022-10-17T14:05:15.815Z,9.35
2022-10-17T14:08:10.908Z,14.52
2022-10-17T14:10:40.030Z,10.55
2022-10-17T14:13:08.357Z,9.82
2022-10-17T14:15:36.669Z,10.18
2022-10-17T14:18:08.000Z,23.15
2022-10-17T14:23:43.625Z,17.92
2022-10-17T14:26:21.557Z,29.88
2022-10-17T14:29:02.374Z,13.35
2022-10-17T14:31:33.449Z,18.15
2022-10-17T14:34:01.083Z,21.85
2022-10-17T14:36:39.572Z,22.83
2022-10-17T14:39:13.305Z,15.77
2022-10-17T14:41:44.501Z,8.45
2022-10-17T14:44:37.226Z,8.45
2022-10-17T14:47:30.837Z,9.73
2022-10-17T14:50:23.567Z,6.93
2022-10-17T14:53:20.872Z,2.78
2022-10-17T14:56:02.558Z,3.35
2022-10-17T14:58:31.869Z,8.07
2022-10-17T15:01:00.051Z,5.63
2022-10-17T15:03:26.675Z,10.13
2022-10-17T15:05:54.733Z,8.73
2022-10-17T15:08:22.797Z,13.98
2022-10-17T15:10:50.477Z,4.28
2022-10-17T15:13:27.532Z,5.70
2022-10-17T15:15:54.338Z,9.00
2022-10-17T15:18:20.782Z,5.32
2022-10-17T15:20:49.572Z,3.67
2022-10-17T15:23:21.983Z,8.00
2022-10-17T15:25:48.312Z,3.22
2022-10-17T15:28:14.702Z,7.28
2022-10-17T15:30:41.077Z,3.63
2022-10-17T15:33:07.524Z,6.63
2022-10-17T15:35:33.898Z,11.55
2022-10-17T15:38:00.301Z,11.23
2022-10-17T15:40:29.431Z,4.00
2022-10-17T15:42:56.430Z,8.80
2022-10-17T15:45:23.474Z,5.80
2022-10-17T15:47:56.066Z,9.80
2022-10-17T15:50:23.068Z,4.13
2022-10-17T15:52:52.959Z,3.65
2022-10-17T15:55:19.934Z,4.97
2022-10-17T15:57:48.737Z,5.03
2022-10-17T16:00:18.678Z,9.93
2022-10-17T16:02:46.327Z,15.25
2022-10-17T16:05:25.458Z,8.80
2022-10-17T16:07:53.517Z,4.72
2022-10-17T16:10:21.482Z,8.15
2022-10-17T16:12:49.808Z,8.40
2022-10-17T16:15:20.199Z,4.43
2022-10-17T16:17:46.585Z,7.75
2022-10-17T16:20:13.619Z,14.50
2022-10-17T16:22:42.098Z,11.02
2022-10-17T16:25:21.377Z,7.68
2022-10-17T16:27:49.803Z,17.05
2022-10-17T16:30:16.890Z,14.45
2022-10-17T16:32:43.521Z,17.15
2022-10-17T16:35:16.147Z,15.20
2022-10-17T16:37:42.523Z,19.90
2022-10-17T16:40:09.502Z,24.50
2022-10-17T16:42:35.884Z,13.57
2022-10-17T16:45:02.332Z,24.05
2022-10-17T16:47:28.693Z,17.83
2022-10-17T16:49:55.378Z,21.83
2022-10-17T16:52:21.693Z,15.45
2022-10-17T16:54:48.095Z,7.45
2022-10-17T16:57:14.768Z,14.73
2022-10-17T16:59:41.236Z,8.65
2022-10-17T17:02:10.252Z,16.38
2022-10-17T17:04:36.683Z,22.10
2022-10-17T17:07:03.256Z,13.93
2022-10-17T17:09:29.629Z,27.08
2022-10-17T17:11:55.949Z,41.45
2022-10-17T17:14:22.320Z,64.30
2022-10-17T17:16:48.701Z,90.93
2022-10-17T17:19:17.057Z,83.28
2022-10-17T17:21:47.650Z,94.93
2022-10-17T17:24:14.081Z,115.85
2022-10-17T17:26:41.539Z,126.93
2022-10-17T17:29:08.062Z,118.63
2022-10-17T17:31:35.632Z,48.40
2022-10-17T17:34:03.046Z,42.60
2022-10-17T17:36:31.884Z,63.97
2022-10-17T17:39:00.872Z,70.30
2022-10-17T17:41:27.989Z,48.95
2022-10-17T17:43:54.833Z,37.70
2022-10-17T17:46:22.701Z,31.30
2022-10-17T17:48:50.624Z,25.48
2022-10-17T17:51:19.697Z,49.13
2022-10-17T17:53:46.635Z,30.02
2022-10-17T17:56:15.744Z,14.98
2022-10-17T17:58:45.656Z,37.70
2022-10-17T18:01:20.561Z,28.05
2022-10-17T18:03:48.208Z,26.45
2022-10-17T18:06:16.185Z,36.78
2022-10-17T18:08:53.816Z,18.65
2022-10-17T18:11:22.084Z,21.40
2022-10-17T18:13:54.615Z,28.77
2022-10-17T18:16:21.504Z,30.60
2022-10-17T18:18:47.871Z,39.03
2022-10-17T18:21:14.370Z,40.83
2022-10-17T18:23:42.601Z,45.22
2022-10-17T18:26:09.958Z,70.60
2022-10-17T18:28:38.551Z,49.00
2022-10-17T18:31:10.725Z,39.03
2022-10-17T18:33:38.032Z,35.47
2022-10-17T18:36:07.463Z,24.55
2022-10-17T18:38:34.276Z,19.02
2022-10-17T18:41:18.735Z,21.08
2022-10-17T18:43:46.356Z,17.55
2022-10-17T18:46:18.279Z,23.10
2022-10-17T18:48:46.184Z,17.23
2022-10-17T18:51:14.735Z,20.40
2022-10-17T18:53:43.574Z,12.07
2022-10-17T18:56:11.077Z,16.10
2022-10-17T18:58:38.316Z,17.10
2022-10-17T19:01:11.917Z,15.48
2022-10-17T19:03:38.505Z,19.15
2022-10-17T19:06:07.800Z,22.70
2022-10-17T19:08:35.399Z,23.30
2022-10-17T19:11:09.482Z,21.65
2022-10-17T19:13:36.685Z,23.77
2022-10-17T19:16:07.791Z,18.75
2022-10-17T19:18:35.427Z,21.98
2022-10-17T19:21:07.051Z,18.88
2022-10-17T19:23:35.987Z,21.30
2022-10-17T19:26:11.666Z,21.42
2022-10-17T19:28:44.439Z,37.10
2022-10-17T19:31:15.421Z,31.80
2022-10-17T19:33:44.279Z,25.27
2022-10-17T19:36:11.842Z,20.58
2022-10-17T19:38:38.210Z,20.80
2022-10-17T19:41:10.448Z,25.23
2022-10-17T19:43:37.993Z,23.65
2022-10-17T19:46:07.141Z,23.58
2022-10-17T19:48:36.767Z,36.28
2022-10-17T19:51:08.471Z,23.35
2022-10-17T19:53:35.607Z,29.23
2022-10-17T19:56:03.036Z,23.13
2022-10-17T19:58:29.427Z,18.83
2022-10-17T20:00:58.410Z,23.70
2022-10-17T20:03:25.594Z,20.35
2022-10-17T20:05:52.299Z,21.75
2022-10-17T20:08:19.372Z,24.60
2022-10-17T20:10:46.329Z,25.38
2022-10-17T20:13:13.372Z,23.27
2022-10-17T20:15:40.309Z,26.63
2022-10-17T20:18:07.681Z,18.65
2022-10-17T20:20:34.892Z,28.05
2022-10-17T20:23:01.469Z,32.53
2022-10-17T20:25:27.938Z,21.25
2022-10-17T20:27:54.254Z,21.35
2022-10-17T20:30:20.686Z,21.27
2022-10-17T20:32:47.172Z,18.17
2022-10-17T20:35:13.849Z,13.65
2022-10-17T20:37:42.589Z,20.33
2022-10-17T20:40:34.116Z,22.48
2022-10-17T20:42:56.200Z,19.67
2022-10-17T20:45:37.311Z,16.02
2022-10-17T20:48:15.695Z,22.08
2022-10-17T20:50:43.444Z,17.17
2022-10-17T20:53:35.492Z,20.20
2022-10-17T20:56:09.172Z,19.80
2022-10-17T20:58:35.721Z,20.90
2022-10-17T21:01:09.711Z,18.88
2022-10-17T21:03:39.779Z,19.27
2022-10-17T21:06:10.169Z,19.25
2022-10-17T21:08:36.810Z,11.05
2022-10-17T21:11:26.859Z,9.23
2022-10-17T21:13:56.203Z,10.07
2022-10-17T21:16:22.943Z,10.52
2022-10-17T21:18:50.070Z,12.00
2022-10-17T21:21:22.239Z,11.50
2022-10-17T21:23:50.489Z,12.93
2022-10-17T21:26:18.088Z,16.05
2022-10-17T21:28:45.958Z,10.90
2022-10-17T21:31:18.146Z,10.68
2022-10-17T21:33:47.956Z,9.60
2022-10-17T21:36:16.770Z,17.70
2022-10-17T21:38:44.965Z,14.90
2022-10-17T21:41:13.841Z,10.10
2022-10-17T21:43:41.182Z,10.68
2022-10-17T21:46:12.294Z,8.13
2022-10-17T21:48:38.843Z,12.98
2022-10-17T21:51:08.443Z,8.02
2022-10-17T21:53:35.343Z,17.42
2022-10-17T21:56:03.628Z,17.38
2022-10-17T21:58:30.757Z,10.68
2022-10-17T22:01:18.588Z,10.70
2022-10-17T22:03:47.033Z,11.52
2022-10-17T22:06:39.283Z,11.10
2022-10-17T22:09:08.566Z,17.23
2022-10-17T22:11:35.534Z,20.25
2022-10-17T22:14:04.998Z,21.15
2022-10-17T22:16:32.194Z,13.23
2022-10-17T22:19:03.292Z,7.50
2022-10-17T22:21:33.006Z,6.10
2022-10-17T22:24:02.425Z,9.50
2022-10-17T22:26:30.466Z,18.77
2022-10-17T22:28:57.113Z,15.30
2022-10-17T22:31:23.569Z,8.80
2022-10-17T22:33:51.014Z,9.05
2022-10-17T22:36:17.702Z,11.00
2022-10-17T22:38:44.063Z,9.27
2022-10-17T22:41:10.542Z,13.45
2022-10-17T22:43:37.104Z,11.27
2022-10-17T22:46:06.086Z,14.23
2022-10-17T22:48:33.438Z,16.52
2022-10-17T22:51:00.274Z,9.15
2022-10-17T22:53:27.109Z,10.27
2022-10-17T22:55:55.457Z,13.30
2022-10-17T22:58:22.629Z,14.68
2022-10-17T23:00:50.102Z,9.10
2022-10-17T23:03:17.569Z,14.15
2022-10-17T23:05:44.258Z,12.93
2022-10-17T23:08:11.772Z,20.25
2022-10-17T23:10:38.127Z,18.17
2022-10-17T23:13:04.755Z,18.00
2022-10-17T23:15:32.696Z,12.00
2022-10-17T23:18:00.318Z,15.00
2022-10-17T23:20:27.841Z,15.65
2022-10-17T23:22:54.256Z,12.73
2022-10-17T23:25:20.711Z,9.30
2022-10-17T23:27:47.352Z,13.27
2022-10-17T23:30:13.959Z,9.43
2022-10-17T23:32:41.030Z,13.85
2022-10-17T23:35:08.499Z,19.65
2022-10-17T23:37:35.299Z,14.90
2022-10-17T23:40:02.309Z,12.93
2022-10-17T23:42:28.674Z,14.95
2022-10-17T23:44:55.035Z,16.67
2022-10-17T23:47:21.580Z,20.92
2022-10-17T23:49:47.979Z,25.08
2022-10-17T23:52:14.329Z,16.13
2022-10-17T23:57:07.982Z,15.10
2022-10-17T23:59:34.403Z,15.30
